Time;durP1;ratioP1;P1;durP2;ratioP2;P2;SDS_P1;SDS_P2;PMS_P1;PMS_P2;Temp;Humidity;BMP_temperature;BMP_pressure;BME280_temperature;BME280_humidity;BME280_pressure;Samples;Min_cycle;Max_cycle;Signal;HPM_P1;HPM_P2
2023/07/14 00:03:37;;;;;;;16.57;11.20;;;;;;;26.06;68.46;96901.97;4994299;28;20269;-86
2023/07/14 00:07:28;;;;;;;12.43;10.50;;;;;;;26.24;67.83;96895.47;4988479;28;20200;-86
2023/07/14 00:11:38;;;;;;;13.60;10.17;;;;;;;26.08;67.79;96868.16;4995115;28;20202;-86
2023/07/14 00:15:15;;;;;;;15.20;10.90;;;;;;;26.24;67.81;96876.06;4969147;28;20219;-86
2023/07/14 00:19:08;;;;;;;17.60;11.30;;;;;;;25.97;68.55;96879.06;4992126;28;21078;-86
2023/07/14 00:22:52;;;;;;;13.33;11.53;;;;;;;25.59;69.61;96865.56;4995994;28;20576;-85
2023/07/14 00:26:14;;;;;;;14.20;11.57;;;;;;;25.88;69.42;96869.50;4992635;28;20192;-86
2023/07/14 00:29:52;;;;;;;14.43;9.93;;;;;;;25.69;69.11;96849.44;5004938;28;20292;-86
2023/07/14 00:37:50;;;;;;;14.40;11.00;;;;;;;25.84;68.45;96882.28;5040267;28;20226;-84
2023/07/14 00:42:14;;;;;;;17.20;11.00;;;;;;;25.66;68.60;96858.56;5027377;28;20759;-87
2023/07/14 00:46:51;;;;;;;14.20;11.30;;;;;;;25.60;68.55;96827.41;4987157;28;20200;-86
2023/07/14 00:50:52;;;;;;;13.10;10.73;;;;;;;26.18;67.00;96866.13;4987115;28;20612;-86
2023/07/14 00:54:19;;;;;;;17.70;12.00;;;;;;;26.35;66.32;96849.16;4969352;28;20230;-86
2023/07/14 00:58:14;;;;;;;15.80;11.47;;;;;;;26.37;66.41;96847.97;4971288;28;20204;-86
2023/07/14 01:01:58;;;;;;;14.13;10.77;;;;;;;26.38;65.73;96843.47;4966781;28;20371;-87
2023/07/14 01:05:18;;;;;;;12.87;11.43;;;;;;;26.69;65.03;96852.28;4986752;28;20209;-87
2023/07/14 01:09:49;;;;;;;13.20;10.83;;;;;;;26.53;65.15;96842.59;4990775;28;20294;-86
2023/07/14 01:18:11;;;;;;;15.73;11.07;;;;;;;26.28;65.72;96848.16;5023523;28;20206;-87
2023/07/14 01:22:31;;;;;;;18.23;11.20;;;;;;;25.94;67.01;96856.38;4986682;28;20208;-87
2023/07/14 01:27:02;;;;;;;14.90;11.70;;;;;;;25.92;66.87;96849.56;4986807;28;20773;-86
2023/07/14 01:29:47;;;;;;;14.80;11.20;;;;;;;25.65;67.57;96848.97;4968597;28;20230;-85
2023/07/14 01:33:00;;;;;;;18.57;12.13;;;;;;;25.36;68.23;96832.72;4974542;28;20846;-85
2023/07/14 01:35:58;;;;;;;15.27;10.93;;;;;;;24.98;68.95;96778.53;4957286;28;20250;-86
2023/07/14 01:38:41;;;;;;;16.60;11.07;;;;;;;25.42;68.29;96831.25;5010533;28;20783;-86
2023/07/14 01:41:48;;;;;;;26.00;10.70;;;;;;;25.06;69.57;96806.84;4993269;28;20198;-86
2023/07/14 01:44:24;;;;;;;15.70;11.07;;;;;;;24.11;70.71;96729.72;4978835;28;20262;-84
2023/07/14 01:47:10;;;;;;;15.90;11.23;;;;;;;24.62;71.49;96843.38;5031939;28;20745;-85
2023/07/14 01:50:26;;;;;;;13.57;11.23;;;;;;;24.31;73.10;96822.88;5018338;28;20209;-85
2023/07/14 01:54:09;;;;;;;18.23;11.90;;;;;;;24.50;72.35;96836.72;5030455;28;20785;-86
2023/07/14 01:57:13;;;;;;;13.67;11.33;;;;;;;24.41;72.23;96813.84;5047083;28;20296;-85
2023/07/14 02:00:38;;;;;;;19.33;12.53;;;;;;;24.66;71.36;96847.34;5018217;28;20211;-85
2023/07/14 02:04:29;;;;;;;21.03;13.70;;;;;;;24.19;72.63;96854.94;5033137;28;20215;-87
2023/07/14 02:08:17;;;;;;;16.60;13.13;;;;;;;23.85;74.12;96851.41;5045237;28;20204;-84
2023/07/14 02:12:02;;;;;;;17.70;13.10;;;;;;;23.96;73.73;96843.22;5036572;28;20231;-87
2023/07/14 02:16:12;;;;;;;18.60;12.30;;;;;;;23.85;73.50;96803.81;5025507;28;20199;-87
2023/07/14 02:19:47;;;;;;;17.53;11.73;;;;;;;23.81;73.38;96820.13;5010081;28;20230;-85
2023/07/14 02:24:09;;;;;;;19.00;11.70;;;;;;;24.00;73.46;96841.91;5016509;28;20236;-88
2023/07/14 02:41:53;;;;;;;17.13;10.60;;;;;;;24.90;68.65;96844.78;4946726;29;20217;-86
2023/07/14 02:45:58;;;;;;;21.27;12.17;;;;;;;24.72;69.31;96853.81;4936131;29;21007;-85
2023/07/14 02:54:07;;;;;;;16.23;12.17;;;;;;;24.83;68.91;96864.94;4946803;29;20239;-86
2023/07/14 02:57:51;;;;;;;16.87;11.57;;;;;;;24.96;67.91;96867.97;4946406;28;20720;-86
2023/07/14 03:02:29;;;;;;;15.60;12.00;;;;;;;24.78;68.13;96867.28;4966102;28;20203;-87
2023/07/14 03:11:54;;;;;;;19.17;12.87;;;;;;;24.70;68.42;96896.34;4963952;28;20213;-86
2023/07/14 03:16:15;;;;;;;16.93;12.83;;;;;;;24.59;69.91;96893.16;4964761;28;20222;-87
2023/07/14 03:20:56;;;;;;;17.70;11.87;;;;;;;24.79;68.22;96906.00;4908757;29;20289;-88
2023/07/14 03:30:16;;;;;;;14.83;12.13;;;;;;;25.08;66.59;96910.88;4890910;29;20221;-79
2023/07/14 03:34:17;;;;;;;19.73;12.20;;;;;;;24.85;67.85;96917.78;4908338;29;20247;-87
2023/07/14 03:38:58;;;;;;;19.07;11.83;;;;;;;24.76;68.16;96916.94;4907599;29;20363;-85
2023/07/14 03:42:59;;;;;;;19.13;12.37;;;;;;;24.83;68.58;96935.69;4907022;29;20214;-83
2023/07/14 03:46:23;;;;;;;18.47;12.23;;;;;;;24.28;69.35;96892.84;4908012;29;20302;-85
2023/07/14 03:49:51;;;;;;;19.00;11.93;;;;;;;24.51;70.04;96944.28;4892272;29;20242;-83
2023/07/14 03:53:14;;;;;;;15.53;11.30;;;;;;;24.71;70.14;96942.22;4944840;29;20252;-84
2023/07/14 03:56:43;;;;;;;15.77;11.77;;;;;;;25.12;68.58;96959.94;4944840;29;20210;-83
2023/07/14 04:00:23;;;;;;;14.53;11.53;;;;;;;24.66;69.65;96949.81;4955880;28;20218;-84
2023/07/14 04:04:29;;;;;;;20.23;12.00;;;;;;;24.11;71.47;96899.88;4974416;28;20235;-84
2023/07/14 04:08:15;;;;;;;17.27;11.83;;;;;;;24.02;71.04;96884.94;4951491;28;20209;-84
2023/07/14 04:11:40;;;;;;;28.10;19.17;;;;;;;23.98;71.56;96914.50;4965652;28;20204;-83
2023/07/14 04:14:30;;;;;;;29.30;18.87;;;;;;;24.06;71.53;96933.09;4968315;28;20208;-84
2023/07/14 04:18:20;;;;;;;27.73;18.10;;;;;;;24.33;71.37;96971.81;4982357;28;20221;-83
2023/07/14 04:21:44;;;;;;;27.63;16.77;;;;;;;24.34;70.99;96957.59;4979423;28;20308;-85
2023/07/14 04:25:16;;;;;;;22.10;15.53;;;;;;;24.75;69.44;96972.72;4973219;28;20380;-86
2023/07/14 04:28:51;;;;;;;19.03;14.10;;;;;;;24.56;70.63;96976.41;4976407;28;20297;-88
2023/07/14 04:32:26;;;;;;;18.37;13.37;;;;;;;25.28;67.95;96973.25;5006790;28;20233;-86
2023/07/14 04:35:55;;;;;;;19.03;13.17;;;;;;;25.63;66.26;96982.78;5005992;28;20322;-86
2023/07/14 04:39:01;;;;;;;20.77;12.23;;;;;;;25.62;64.60;96901.50;5006350;28;20278;-84
2023/07/14 04:42:30;;;;;;;16.97;12.47;;;;;;;26.73;61.50;97010.41;4975940;28;20207;-84
2023/07/14 04:46:00;;;;;;;19.00;12.17;;;;;;;26.48;61.77;96993.69;4991323;28;20671;-84
2023/07/14 04:49:25;;;;;;;17.37;13.37;;;;;;;26.66;61.99;97000.63;5005624;28;20205;-84
2023/07/14 04:52:58;;;;;;;20.20;12.90;;;;;;;27.01;59.97;96973.59;5005779;28;20238;-85
2023/07/14 04:56:26;;;;;;;20.40;13.87;;;;;;;27.31;59.29;96940.84;4987226;28;20196;-85
2023/07/14 05:00:18;;;;;;;19.17;13.13;;;;;;;28.30;56.88;97008.19;4970717;28;20236;-83
2023/07/14 05:05:05;;;;;;;23.13;12.60;;;;;;;27.85;55.64;96865.28;4915295;29;20241;-84
2023/07/14 05:09:27;;;;;;;18.97;11.43;;;;;;;29.19;53.54;97001.91;4899840;29;20624;-83
2023/07/14 05:13:13;;;;;;;20.03;11.47;;;;;;;30.07;50.72;97005.97;4929367;29;20242;-83
2023/07/14 05:20:37;;;;;;;19.07;9.43;;;;;;;30.37;47.83;96993.31;4927008;29;20259;-86
2023/07/14 05:23:46;;;;;;;13.73;7.53;;;;;;;30.31;44.14;96914.75;4927654;29;20209;-85
2023/07/14 05:27:20;;;;;;;13.20;7.50;;;;;;;31.05;44.36;97008.59;4912586;29;20658;-86
2023/07/14 05:30:48;;;;;;;16.33;7.67;;;;;;;30.70;45.22;96993.53;4945458;28;20699;-83
2023/07/14 05:34:30;;;;;;;15.87;8.30;;;;;;;30.63;44.88;97024.75;4962241;28;20926;-85
2023/07/14 05:37:37;;;;;;;17.60;7.70;;;;;;;30.27;46.10;97023.03;5006403;28;20288;-84
2023/07/14 05:40:46;;;;;;;17.53;7.43;;;;;;;30.04;47.08;97024.25;5003918;28;20626;-84
2023/07/14 05:44:43;;;;;;;14.33;7.50;;;;;;;30.09;48.20;97044.00;5005274;28;20615;-84
2023/07/14 05:48:35;;;;;;;21.17;7.63;;;;;;;29.88;48.80;97032.50;4979370;28;20219;-83
2023/07/14 05:51:36;;;;;;;12.37;7.43;;;;;;;30.00;49.59;97028.31;4949255;28;20231;-83
2023/07/14 05:54:27;;;;;;;15.63;7.90;;;;;;;29.85;50.40;97036.38;4945499;28;20213;-84
2023/07/14 05:57:10;;;;;;;13.83;7.57;;;;;;;29.82;50.88;97015.38;4953708;28;20653;-82
2023/07/14 05:59:58;;;;;;;13.20;7.33;;;;;;;29.95;51.27;97015.53;4943954;28;20197;-86
2023/07/14 06:02:41;;;;;;;14.23;7.70;;;;;;;30.06;50.57;97003.50;4987670;28;20226;-83
2023/07/14 06:05:10;;;;;;;12.30;7.73;;;;;;;30.23;51.18;97016.38;5007812;28;20553;-82
2023/07/14 06:07:53;;;;;;;12.90;7.40;;;;;;;30.11;51.42;97015.25;5028195;28;20201;-82
2023/07/14 06:10:25;;;;;;;12.00;8.00;;;;;;;30.12;52.12;97027.63;5029219;28;20209;-80
2023/07/14 06:12:58;;;;;;;10.70;7.90;;;;;;;29.85;52.57;96998.16;5015285;28;20348;-83
2023/07/14 06:16:27;;;;;;;14.50;8.60;;;;;;;29.76;52.35;97026.84;5047737;28;20201;-85
2023/07/14 06:19:51;;;;;;;15.17;9.13;;;;;;;29.76;52.80;97031.38;5014875;28;20639;-83
2023/07/14 06:23:20;;;;;;;13.77;8.20;;;;;;;29.65;53.40;97025.47;5027777;28;20276;-83
2023/07/14 06:26:44;;;;;;;16.40;9.10;;;;;;;29.67;54.07;97022.63;4986481;28;20207;-85
2023/07/14 06:30:09;;;;;;;16.93;9.37;;;;;;;29.80;53.69;97016.63;4955090;28;20293;-83
2023/07/14 06:33:34;;;;;;;14.43;8.97;;;;;;;29.91;53.03;97034.78;4986018;28;20228;-83
2023/07/14 06:37:10;;;;;;;16.37;10.40;;;;;;;29.92;53.04;96999.06;4970261;28;20283;-83
2023/07/14 06:40:33;;;;;;;13.83;9.73;;;;;;;29.97;52.57;97007.31;4896346;29;20240;-84
2023/07/14 06:44:00;;;;;;;12.93;9.93;;;;;;;29.96;52.11;97011.84;4911648;29;20201;-83
2023/07/14 06:47:26;;;;;;;13.73;9.93;;;;;;;30.28;50.71;97021.16;4883038;29;20218;-84
2023/07/14 06:51:09;;;;;;;17.40;11.57;;;;;;;30.36;50.99;97024.56;4926749;29;20297;-82
2023/07/14 06:55:00;;;;;;;18.40;10.97;;;;;;;30.58;50.63;97008.47;4917081;29;20205;-84
2023/07/14 06:58:25;;;;;;;11.97;10.77;;;;;;;30.81;49.73;97025.09;4926553;29;20221;-82
2023/07/14 07:01:48;;;;;;;16.93;11.00;;;;;;;30.91;49.02;97038.97;4927891;29;20237;-83
2023/07/14 07:05:10;;;;;;;15.13;11.33;;;;;;;30.66;50.24;97009.16;4924872;29;20228;-83
2023/07/14 07:08:34;;;;;;;18.33;11.23;;;;;;;31.05;49.67;97038.84;4913721;29;20621;-82
2023/07/14 07:12:22;;;;;;;17.30;11.20;;;;;;;31.14;49.11;97034.16;4973260;28;20239;-82
2023/07/14 07:15:48;;;;;;;18.53;11.10;;;;;;;31.48;46.99;97035.97;4949276;28;20207;-81
2023/07/14 07:19:15;;;;;;;14.85;10.77;;;;;;;31.24;47.58;96994.47;4955337;28;20264;-81
2023/07/14 07:22:44;;;;;;;13.17;10.57;;;;;;;31.54;46.09;97027.97;4966498;28;20219;-83
2023/07/14 07:26:17;;;;;;;13.95;10.65;;;;;;;31.87;46.86;97041.44;4977967;28;20237;-82
2023/07/14 07:29:41;;;;;;;16.88;12.57;;;;;;;31.94;47.44;97043.13;4985779;28;20720;-84
2023/07/14 07:33:05;;;;;;;18.60;12.10;;;;;;;31.98;47.26;97044.38;5045444;28;20283;-83
2023/07/14 07:36:29;;;;;;;17.58;11.55;;;;;;;32.12;46.52;97045.25;5067097;28;20565;-81
2023/07/14 07:39:53;;;;;;;16.40;12.05;;;;;;;32.34;46.74;97037.81;5014047;28;20228;-81
2023/07/14 07:43:18;;;;;;;17.25;12.30;;;;;;;32.31;46.72;97038.25;5058326;28;20193;-83
2023/07/14 07:46:40;;;;;;;22.75;13.52;;;;;;;32.42;46.02;97040.31;5030460;28;20197;-84
2023/07/14 07:50:04;;;;;;;18.33;12.27;;;;;;;32.47;46.14;97021.78;5064462;28;20251;-82
2023/07/14 07:57:30;;;;;;;16.88;11.77;;;;;;;32.52;45.91;97030.84;5058767;28;20296;-85
2023/07/14 08:01:09;;;;;;;15.60;11.85;;;;;;;32.81;44.61;97030.38;5031287;28;20240;-81
2023/07/14 08:04:32;;;;;;;20.13;12.93;;;;;;;33.22;43.64;97037.34;5033885;28;20192;-81
2023/07/14 08:08:10;;;;;;;18.48;12.02;;;;;;;33.27;43.02;97014.19;5035226;28;20684;-82
2023/07/14 08:11:33;;;;;;;17.30;10.63;;;;;;;33.35;41.86;97005.06;5050725;28;20201;-85
2023/07/14 08:15:09;;;;;;;15.45;10.60;;;;;;;33.36;41.95;97023.66;5067332;28;20707;-82
2023/07/14 08:18:34;;;;;;;13.80;10.23;;;;;;;33.29;41.10;97020.19;5071299;28;20211;-80
2023/07/14 08:22:05;;;;;;;15.95;10.05;;;;;;;33.48;40.01;97016.59;5050702;28;20251;-85
2023/07/14 08:29:37;;;;;;;18.30;10.27;;;;;;;33.47;39.31;96961.19;5051470;28;20200;-85
2023/07/14 08:33:19;;;;;;;13.38;9.85;;;;;;;33.91;40.37;97015.97;5037155;28;20234;-83
2023/07/14 08:37:11;;;;;;;18.13;10.40;;;;;;;33.66;40.89;97026.66;5034721;28;20200;-81
2023/07/14 08:40:37;;;;;;;14.73;11.02;;;;;;;33.79;40.92;97018.53;5048921;28;20228;-80
2023/07/14 08:44:08;;;;;;;20.23;11.75;;;;;;;33.71;41.05;97031.38;5035479;28;20223;-81
2023/07/14 08:47:33;;;;;;;14.57;10.82;;;;;;;33.79;41.40;97039.19;5051670;28;20200;-86
2023/07/14 08:50:54;;;;;;;15.32;10.55;;;;;;;33.62;41.21;97023.56;5049813;28;20279;-81
2023/07/14 08:54:19;;;;;;;21.27;10.98;;;;;;;33.84;40.70;97042.06;5068731;28;20282;-83
2023/07/14 08:57:43;;;;;;;15.02;10.35;;;;;;;33.81;41.56;97040.63;5052198;28;20251;-80
2023/07/14 09:00:54;;;;;;;16.98;10.90;;;;;;;33.67;41.29;97046.28;5066597;28;20206;-82
2023/07/14 09:04:23;;;;;;;12.93;9.43;;;;;;;33.11;41.60;96982.44;5049346;28;20193;-80
2023/07/14 09:07:49;;;;;;;13.77;11.10;;;;;;;33.13;42.37;97042.13;5037351;28;20196;-81
2023/07/14 09:11:22;;;;;;;14.45;10.73;;;;;;;33.26;41.50;97052.81;5053634;28;20193;-82
2023/07/14 09:14:39;;;;;;;16.25;10.70;;;;;;;33.34;40.41;97041.84;5032157;28;20296;-81
2023/07/14 09:17:26;;;;;;;14.95;11.18;;;;;;;33.53;39.55;97054.41;5051775;28;20263;-81
2023/07/14 09:20:50;;;;;;;14.23;11.57;;;;;;;33.48;40.50;97056.88;5048906;28;20653;-81
2023/07/14 09:24:41;;;;;;;15.35;10.82;;;;;;;33.34;40.05;97047.22;5069154;28;20326;-79
2023/07/14 09:27:27;;;;;;;14.18;9.95;;;;;;;33.32;39.52;97053.84;5051383;28;20628;-84
2023/07/14 09:30:00;;;;;;;13.30;10.88;;;;;;;33.21;38.98;97008.84;5049544;28;20204;-80
2023/07/14 09:32:49;;;;;;;17.63;11.02;;;;;;;33.61;39.52;97031.84;5050883;28;20646;-84
2023/07/14 09:35:24;;;;;;;14.30;11.25;;;;;;;33.98;38.10;97040.94;5067492;28;20236;-84
2023/07/14 09:38:22;;;;;;;13.93;10.65;;;;;;;33.73;38.61;97045.44;5066177;28;20311;-80
2023/07/14 09:41:03;;;;;;;21.15;12.38;;;;;;;33.84;38.77;97050.13;5051505;28;20201;-81
2023/07/14 09:44:36;;;;;;;16.08;11.80;;;;;;;33.80;38.05;97022.84;5058866;28;20200;-85
2023/07/14 09:47:06;;;;;;;16.80;11.25;;;;;;;33.75;38.82;97043.34;5049641;28;20292;-83
2023/07/14 09:49:47;;;;;;;14.52;10.95;;;;;;;33.99;37.97;97045.25;5033865;28;20279;-82
2023/07/14 09:57:09;;;;;;;15.18;11.80;;;;;;;33.84;38.83;97021.38;5008119;28;20251;-84
2023/07/14 10:00:01;;;;;;;15.90;12.27;;;;;;;34.13;38.58;97036.09;5007894;28;20694;-85
2023/07/14 10:03:07;;;;;;;15.00;11.10;;;;;;;33.66;38.50;97034.69;5025458;28;20210;-82
2023/07/14 10:06:20;;;;;;;15.57;11.27;;;;;;;33.82;39.29;97028.03;5012740;28;20207;-81
2023/07/14 10:09:08;;;;;;;17.30;11.57;;;;;;;33.97;36.14;97023.97;5023058;28;20214;-81
2023/07/14 10:12:20;;;;;;;14.10;10.93;;;;;;;33.89;37.26;97029.63;4993084;28;20672;-83
2023/07/14 10:15:46;;;;;;;17.42;11.43;;;;;;;34.11;37.70;97030.13;5007055;28;20709;-82
2023/07/14 10:19:24;;;;;;;15.30;11.43;;;;;;;33.89;38.11;97026.09;5024545;28;20226;-81
2023/07/14 10:22:54;;;;;;;20.27;12.07;;;;;;;34.30;36.67;97023.78;5025406;28;20591;-81
2023/07/14 10:26:17;;;;;;;18.02;11.55;;;;;;;34.30;36.41;97021.09;5010320;28;20198;-83
2023/07/14 10:29:38;;;;;;;17.70;11.52;;;;;;;34.49;36.52;97017.44;5044309;28;20206;-81
2023/07/14 10:33:19;;;;;;;23.13;12.60;;;;;;;34.63;36.22;97016.28;5013454;28;20234;-80
2023/07/14 10:37:04;;;;;;;17.10;11.07;;;;;;;34.48;37.22;97010.38;5022286;28;20207;-79
2023/07/14 10:44:16;;;;;;;15.75;11.25;;;;;;;34.08;37.30;97009.88;5030878;28;20202;-82
2023/07/14 10:52:31;;;;;;;17.52;10.32;;;;;;;34.37;36.70;96994.97;5005214;28;20662;-83
2023/07/14 10:56:12;;;;;;;16.30;11.45;;;;;;;34.07;37.49;96959.00;5005329;28;20203;-82
2023/07/14 10:59:48;;;;;;;13.88;11.68;;;;;;;34.60;36.77;96989.81;4975107;28;20211;-82
2023/07/14 11:03:03;;;;;;;19.98;11.73;;;;;;;35.11;35.73;96981.44;5004500;28;20290;-83
2023/07/14 11:06:38;;;;;;;14.65;11.13;;;;;;;34.58;36.91;96988.41;5002941;28;20306;-79
2023/07/14 11:10:03;;;;;;;14.27;11.02;;;;;;;34.32;37.33;96981.34;4970175;28;20734;-80
2023/07/14 11:17:42;;;;;;;15.57;11.35;;;;;;;34.83;36.83;96984.59;4964427;28;20209;-81
2023/07/14 11:20:39;;;;;;;19.08;11.88;;;;;;;34.32;37.20;96971.41;4953283;28;20725;-82
2023/07/14 11:23:47;;;;;;;15.48;11.82;;;;;;;34.73;36.97;96984.28;5008906;28;20609;-82
2023/07/14 11:26:57;;;;;;;18.25;11.57;;;;;;;34.86;37.01;96975.25;4953266;28;20266;-80
2023/07/14 11:30:21;;;;;;;21.60;12.52;;;;;;;34.93;37.01;96968.75;4983862;28;20196;-79
2023/07/14 11:36:52;;;;;;;13.63;10.68;;;;;;;34.85;37.27;96969.03;4985582;28;20652;-82
2023/07/14 11:40:22;;;;;;;14.10;12.00;;;;;;;34.77;37.82;96971.19;4979343;28;20368;-78
2023/07/14 11:43:49;;;;;;;17.70;11.73;;;;;;;34.80;38.05;96950.06;5007897;28;20246;-78
2023/07/14 11:47:10;;;;;;;19.52;11.90;;;;;;;34.99;36.99;96967.91;4998662;28;20419;-83
2023/07/14 11:50:15;;;;;;;20.02;12.57;;;;;;;35.07;38.35;96956.00;4987598;28;20223;-85
2023/07/14 11:53:39;;;;;;;14.23;11.85;;;;;;;35.35;38.08;96963.50;4971029;28;20239;-81
2023/07/14 11:57:03;;;;;;;16.23;12.75;;;;;;;34.94;38.69;96958.81;4980668;28;20238;-81
2023/07/14 12:00:13;;;;;;;18.98;12.68;;;;;;;34.58;38.28;96978.47;5029051;28;20197;-80
2023/07/14 12:03:18;;;;;;;20.90;11.95;;;;;;;34.67;39.29;96963.66;5022032;28;20226;-79
2023/07/14 12:06:14;;;;;;;16.05;12.70;;;;;;;34.98;38.96;96974.31;4987462;28;20208;-79
2023/07/14 12:09:50;;;;;;;14.85;12.25;;;;;;;34.96;39.71;96972.88;4971669;28;20634;-79
2023/07/14 12:13:14;;;;;;;19.63;12.73;;;;;;;35.10;39.20;96969.81;4971873;28;20231;-81
2023/07/14 12:16:02;;;;;;;16.13;13.50;;;;;;;35.08;39.59;96963.00;4954549;28;20291;-78
2023/07/14 12:19:26;;;;;;;15.55;12.38;;;;;;;34.78;40.10;96965.63;4953974;28;20675;-81
2023/07/14 12:23:04;;;;;;;16.67;12.60;;;;;;;34.85;40.49;96952.91;4970987;28;20619;-80
2023/07/14 12:26:29;;;;;;;16.05;12.15;;;;;;;34.82;40.12;96966.00;4956739;28;20211;-83
2023/07/14 12:29:50;;;;;;;19.25;13.00;;;;;;;34.72;40.57;96961.13;4987317;28;20235;-80
2023/07/14 12:33:14;;;;;;;15.65;12.73;;;;;;;34.17;41.46;96946.72;4986222;28;20577;-82
2023/07/14 12:36:39;;;;;;;13.93;12.45;;;;;;;34.49;40.81;96950.19;4996363;28;20204;-80
2023/07/14 12:40:06;;;;;;;18.67;12.88;;;;;;;34.59;40.28;96958.56;5015440;28;20312;-77
2023/07/14 12:43:35;;;;;;;18.35;12.85;;;;;;;34.51;41.37;96950.78;5048991;28;20780;-82
2023/07/14 12:47:03;;;;;;;17.60;12.07;;;;;;;34.42;40.60;96935.94;5031572;28;20197;-79
2023/07/14 12:50:33;;;;;;;17.90;13.35;;;;;;;34.25;41.10;96937.56;5029912;28;20615;-80
2023/07/14 12:53:54;;;;;;;15.88;11.68;;;;;;;34.56;41.04;96929.41;5047379;28;20320;-80
2023/07/14 12:57:20;;;;;;;17.42;12.15;;;;;;;34.79;40.10;96953.78;5032221;28;20198;-81
2023/07/14 13:00:47;;;;;;;17.48;11.82;;;;;;;34.61;40.82;96931.44;5049337;28;20308;-81
2023/07/14 13:04:11;;;;;;;21.73;12.10;;;;;;;34.51;40.55;96918.50;5016777;28;20202;-80
2023/07/14 13:08:00;;;;;;;15.70;11.93;;;;;;;34.36;41.62;96939.50;5049495;28;20259;-80
2023/07/14 13:11:27;;;;;;;19.25;12.00;;;;;;;34.60;41.74;96913.66;5032884;28;20697;-80
2023/07/14 13:14:55;;;;;;;14.73;11.60;;;;;;;34.72;41.08;96938.78;5048057;28;20760;-80
2023/07/14 13:17:42;;;;;;;15.10;10.63;;;;;;;34.42;40.77;96938.63;5011349;28;20198;-83
2023/07/14 13:20:43;;;;;;;14.20;11.07;;;;;;;34.59;40.18;96942.44;5011618;28;20357;-79
2023/07/14 13:23:47;;;;;;;16.10;11.60;;;;;;;34.69;39.74;96939.19;5011500;28;20206;-82
2023/07/14 13:32:24;;;;;;;17.40;12.07;;;;;;;34.64;40.20;96941.75;5027711;28;20195;-84
2023/07/14 13:36:09;;;;;;;14.30;10.80;;;;;;;34.38;41.08;96943.63;5013978;28;20233;-82
2023/07/14 13:38:51;;;;;;;13.75;11.30;;;;;;;34.19;40.20;96922.31;4968153;28;20216;-79
2023/07/14 13:47:07;;;;;;;20.58;11.70;;;;;;;34.94;39.61;96954.25;5009897;28;20210;-83
2023/07/14 13:49:57;;;;;;;17.40;10.88;;;;;;;34.95;39.22;96939.72;5025098;28;20744;-79
2023/07/14 13:52:36;;;;;;;15.40;10.93;;;;;;;34.73;38.51;96948.47;4995230;28;20240;-82
2023/07/14 13:56:46;;;;;;;14.90;10.35;;;;;;;34.29;39.85;96950.31;5019843;28;20231;-87
2023/07/14 14:05:14;;;;;;;15.43;11.10;;;;;;;34.14;38.96;96952.53;4990019;28;20200;-82
2023/07/14 14:08:48;;;;;;;15.38;10.85;;;;;;;34.13;39.91;96955.44;4932213;28;20632;-82
2023/07/14 14:12:16;;;;;;;16.30;10.07;;;;;;;34.26;39.16;96952.63;4928299;29;20653;-84
2023/07/14 14:15:48;;;;;;;15.15;10.73;;;;;;;34.05;39.33;96928.81;4911736;29;20197;-81
2023/07/14 14:19:11;;;;;;;13.60;10.80;;;;;;;33.78;40.48;96935.44;4909670;29;20217;-86
2023/07/14 14:22:37;;;;;;;16.70;11.13;;;;;;;33.83;42.05;96949.84;4897499;29;20210;-82
2023/07/14 14:26:01;;;;;;;15.73;11.68;;;;;;;33.31;44.61;96955.50;4909001;29;20293;-87
2023/07/14 14:29:27;;;;;;;15.35;12.60;;;;;;;33.42;45.51;96946.78;4909315;29;20416;-88
2023/07/14 14:32:48;;;;;;;14.98;11.20;;;;;;;33.47;44.85;96950.47;4877603;29;20195;-81
2023/07/14 14:36:02;;;;;;;15.05;11.05;;;;;;;33.35;44.83;96952.19;4911651;29;20698;-81
2023/07/14 14:39:28;;;;;;;13.90;9.63;;;;;;;33.17;43.81;96941.34;4894870;29;20214;-82
2023/07/14 14:42:51;;;;;;;15.57;10.77;;;;;;;33.37;44.66;96950.09;4962580;28;20197;-79
2023/07/14 14:46:15;;;;;;;17.08;10.98;;;;;;;33.32;44.85;96941.06;4936311;28;20676;-81
2023/07/14 14:49:39;;;;;;;17.77;11.10;;;;;;;33.00;45.40;96924.06;4935286;28;20300;-83
2023/07/14 14:53:06;;;;;;;16.15;11.43;;;;;;;33.33;45.20;96934.63;4933189;28;20256;-76
2023/07/14 14:56:54;;;;;;;14.15;10.60;;;;;;;33.22;46.06;96946.88;4948729;28;20548;-83
2023/07/14 15:04:31;;;;;;;12.88;10.23;;;;;;;32.72;45.56;96947.66;5025905;28;20613;-84
2023/07/14 15:07:59;;;;;;;16.27;10.95;;;;;;;32.70;45.69;96952.41;5007568;28;20304;-89
2023/07/14 15:11:20;;;;;;;15.55;10.82;;;;;;;32.98;45.94;96930.66;4983262;28;20204;-81
2023/07/14 15:14:56;;;;;;;15.00;10.40;;;;;;;32.93;44.91;96931.28;4985403;28;20779;-79
2023/07/14 15:18:21;;;;;;;12.38;10.25;;;;;;;32.79;45.59;96935.03;4984306;28;20208;-86
2023/07/14 15:22:39;;;;;;;15.90;10.35;;;;;;;32.54;46.64;96913.44;4984793;28;20247;-82
2023/07/14 15:25:23;;;;;;;16.58;10.23;;;;;;;32.61;46.12;96940.25;4950540;28;20298;-81
2023/07/14 15:28:36;;;;;;;16.27;11.20;;;;;;;32.53;46.49;96927.06;4999888;28;20208;-82
2023/07/14 15:31:49;;;;;;;12.13;10.00;;;;;;;32.36;46.96;96945.41;4995962;28;20605;-81
2023/07/14 15:34:57;;;;;;;17.52;9.57;;;;;;;32.36;47.20;96936.53;4989381;28;20239;-83
2023/07/14 15:38:19;;;;;;;12.82;9.65;;;;;;;32.43;46.43;96929.31;4967923;28;20801;-79
2023/07/14 15:41:41;;;;;;;14.90;10.02;;;;;;;32.39;46.52;96949.56;4995860;28;20250;-79
2023/07/14 15:45:05;;;;;;;12.00;9.70;;;;;;;32.21;47.78;96946.69;4992496;28;20261;-79
2023/07/14 15:48:29;;;;;;;12.60;9.10;;;;;;;32.34;46.53;96941.28;4995125;28;20229;-80
2023/07/14 15:51:53;;;;;;;19.20;9.93;;;;;;;32.27;46.41;96924.41;4987085;28;20199;-83
2023/07/14 15:54:59;;;;;;;17.27;10.60;;;;;;;32.31;47.35;96920.28;5026398;28;20214;-79
2023/07/14 15:58:09;;;;;;;16.52;10.18;;;;;;;32.21;46.92;96941.31;4999975;28;20625;-82
2023/07/14 16:01:32;;;;;;;14.13;9.52;;;;;;;32.19;47.77;96948.75;5037614;28;20227;-88
2023/07/14 16:04:57;;;;;;;13.35;9.68;;;;;;;32.26;47.29;96952.22;5047470;28;20197;-82
2023/07/14 16:08:18;;;;;;;15.82;9.05;;;;;;;32.07;46.63;96935.97;5068386;28;20297;-82
2023/07/14 16:11:40;;;;;;;14.55;9.80;;;;;;;32.26;47.07;96945.03;5034339;28;20205;-84
2023/07/14 16:15:04;;;;;;;13.27;9.02;;;;;;;32.01;47.50;96946.69;5066352;28;20231;-83
2023/07/14 16:18:25;;;;;;;13.23;8.95;;;;;;;31.66;48.11;96902.31;5048017;28;20208;-84
2023/07/14 16:21:47;;;;;;;12.65;9.35;;;;;;;32.02;47.69;96930.41;5065183;28;20197;-82
2023/07/14 16:25:09;;;;;;;10.75;9.10;;;;;;;32.02;48.01;96943.81;5068286;28;20197;-88
2023/07/14 16:28:32;;;;;;;16.48;9.73;;;;;;;31.88;49.00;96936.75;5069817;28;20633;-80
2023/07/14 16:31:53;;;;;;;14.77;8.57;;;;;;;31.97;48.32;96940.06;5036984;28;20194;-82
2023/07/14 16:35:14;;;;;;;13.13;8.68;;;;;;;31.69;48.38;96934.91;5034646;28;20197;-81
2023/07/14 16:38:27;;;;;;;12.13;9.20;;;;;;;31.69;48.91;96948.28;5021005;28;20676;-83
2023/07/14 16:41:55;;;;;;;14.32;9.18;;;;;;;31.82;48.51;96948.28;5057062;28;20229;-84
2023/07/14 16:45:17;;;;;;;12.75;8.90;;;;;;;31.27;49.16;96916.44;5054906;28;20190;-85
2023/07/14 16:48:38;;;;;;;15.02;9.70;;;;;;;31.80;48.48;96934.28;5037401;28;20201;-80
2023/07/14 16:52:01;;;;;;;17.95;9.18;;;;;;;31.75;47.85;96946.63;5034944;28;20198;-83
2023/07/14 16:55:24;;;;;;;12.50;8.60;;;;;;;31.98;48.01;96961.31;5038381;28;20201;-80
2023/07/14 16:58:57;;;;;;;11.65;8.10;;;;;;;32.17;47.47;96950.81;5050341;28;20205;-83
2023/07/14 17:02:19;;;;;;;13.45;8.90;;;;;;;32.00;48.26;96956.59;5051434;28;20204;-82
2023/07/14 17:05:41;;;;;;;12.77;9.32;;;;;;;32.05;47.19;96969.34;5051500;28;20580;-80
2023/07/14 17:09:03;;;;;;;11.65;8.63;;;;;;;31.85;47.36;96972.00;5068930;28;20201;-83
2023/07/14 17:12:25;;;;;;;16.08;8.60;;;;;;;31.81;47.44;96984.16;5052112;28;20250;-83
2023/07/14 17:15:47;;;;;;;13.65;9.30;;;;;;;31.91;47.27;96984.56;5070162;28;20259;-84
2023/07/14 17:19:08;;;;;;;10.27;8.20;;;;;;;31.93;46.52;96992.44;5020425;28;20197;-86
2023/07/14 17:22:35;;;;;;;18.77;9.68;;;;;;;32.06;47.41;96992.47;5069678;28;20190;-83